Main page
METAR-TAF:

Airports :

Mexicali, Mexico

General Rodolfo Sánchez Taboada International Airport

latitude: 32-37-50N, longitude: 115-14-30W, elevation: 22 m

Current weather observation

The report was made 47 minutes ago, at 14:40 UTC
Wind 5 kt from the Southeast
Temperature 28°C
Humidity 62%
Pressure 1011 hPa
Visibility: 16.1 km
Clear sky

METAR: MMML 261440Z 13005KT 10SM SKC 28/20 A2984 RMK SLP105 5//// 917 AC S SE

Time: 10:27 (15:27 UTC)

Forecast

The report was made 11 hours and 59 minutes ago, at 03:28 UTC
Forecast valid from 26 at 06 UTC to 27 at 06 UTC
Wind 6 kt from the East/Southeast
Visibility: 10 km
Clear sky
From 26 at 1800 UTC
Wind 10 kt from the Southeast
Visibility: 10 km
Scattered clouds at a height of 25000 ft
From 27 at 0500 UTC
Wind 6 kt from the East/Southeast
Visibility: 10 km
Clear sky

TAF: MMML 260328Z 2606/2706 12006KT P6SM SKC FM261800 14010KT P6SM SCT250 FM270500 12006KT P6SM SKC

METAR-TAF

Weather observations and forecasts of more than 4000 airports (METAR and TAF reports).

The available stations are represented by yellow and red dots on the map.

Hover mouse over dot to see the name of the station.

Then click to see weather observations and forecasts.

To change the map : click on the green buttons with a black cross to zoom in, on the green button with a dash to zoom out, or on the green arrows for adjacent maps.


METAR-TAF: